Time;durP1;ratioP1;P1;durP2;ratioP2;P2;SDS_P1;SDS_P2;PMS_P1;PMS_P2;Temp;Humidity;BMP_temperature;BMP_pressure;BME280_temperature;BME280_humidity;BME280_pressure;Samples;Min_cycle;Max_cycle;Signal;HPM_P1;HPM_P2
2022/05/05 00:01:58;;;;;;;5.05;1.52;;;5.70;99.90;;;;;;5003379;28;21084;-66
2022/05/05 00:04:25;;;;;;;1.92;1.30;;;5.70;99.90;;;;;;5000823;28;20059;-69
2022/05/05 00:06:52;;;;;;;2.58;1.05;;;5.70;99.90;;;;;;5001396;28;20058;-64
2022/05/05 00:09:19;;;;;;;3.40;1.63;;;5.60;99.90;;;;;;5003335;28;20718;-64
2022/05/05 00:14:31;;;;;;;2.75;0.90;;;5.60;99.90;;;;;;5001459;28;20073;-67
2022/05/05 00:17:06;;;;;;;3.92;1.25;;;5.50;99.90;;;;;;4996350;28;20038;-65
2022/05/05 00:19:34;;;;;;;4.70;0.90;;;5.50;99.90;;;;;;4993064;28;20058;-69
2022/05/05 00:22:03;;;;;;;3.38;1.45;;;5.50;99.90;;;;;;5000938;28;20041;-64
2022/05/05 00:24:30;;;;;;;2.75;1.10;;;5.50;99.90;;;;;;5003095;28;20054;-67
2022/05/05 00:26:57;;;;;;;1.98;0.82;;;5.40;99.90;;;;;;4992686;28;20140;-63
2022/05/05 00:29:24;;;;;;;2.20;1.27;;;5.40;99.90;;;;;;4999428;28;20160;-67
2022/05/05 00:31:51;;;;;;;2.10;1.08;;;5.40;99.90;;;;;;5000973;28;20068;-66
2022/05/05 00:34:18;;;;;;;1.15;1.05;;;5.40;99.90;;;;;;4995509;28;20555;-66
2022/05/05 00:36:45;;;;;;;2.72;1.30;;;5.40;99.90;;;;;;5001211;28;20045;-72
2022/05/05 00:39:12;;;;;;;4.88;1.60;;;5.40;99.90;;;;;;4998263;28;20108;-66
2022/05/05 00:41:44;;;;;;;3.70;1.13;;;5.30;99.90;;;;;;5003576;28;20106;-67
2022/05/05 00:44:12;;;;;;;1.75;1.00;;;5.30;99.90;;;;;;4994416;28;20062;-67
2022/05/05 00:46:40;;;;;;;2.53;1.50;;;5.30;99.90;;;;;;4993795;28;20050;-67
2022/05/05 00:49:07;;;;;;;6.95;1.48;;;5.20;99.90;;;;;;4994757;28;20069;-69
2022/05/05 00:51:34;;;;;;;1.35;1.00;;;5.30;99.90;;;;;;4999243;28;20141;-67
2022/05/05 00:54:01;;;;;;;1.23;1.08;;;5.30;99.90;;;;;;5002021;28;20508;-63
2022/05/05 00:56:29;;;;;;;4.70;1.40;;;5.30;99.90;;;;;;4996359;28;20460;-65
2022/05/05 00:58:57;;;;;;;1.63;0.95;;;5.30;99.90;;;;;;5000337;28;20046;-66
2022/05/05 01:01:31;;;;;;;1.63;0.88;;;5.30;99.90;;;;;;5168053;23;21182;-69
2022/05/05 01:03:59;;;;;;;2.38;0.82;;;5.30;99.90;;;;;;4999706;28;20120;-66
2022/05/05 01:06:28;;;;;;;2.85;1.02;;;5.30;99.90;;;;;;4999112;28;20934;-67
2022/05/05 01:08:55;;;;;;;3.50;1.10;;;5.20;99.90;;;;;;4998207;23;20052;-84
2022/05/05 01:11:22;;;;;;;2.33;0.95;;;5.20;99.90;;;;;;4981553;28;20057;-84
2022/05/05 01:13:49;;;;;;;3.65;0.93;;;5.20;99.90;;;;;;4979422;28;20145;-84
2022/05/05 01:16:16;;;;;;;2.15;1.10;;;5.10;99.90;;;;;;4980803;28;20582;-84
2022/05/05 01:18:44;;;;;;;2.53;1.00;;;5.10;99.90;;;;;;4977000;28;20051;-84
2022/05/05 01:21:11;;;;;;;4.15;1.05;;;5.10;99.90;;;;;;4975968;28;20078;-84
2022/05/05 01:23:39;;;;;;;1.77;1.25;;;5.00;99.90;;;;;;4969226;28;20087;-83
2022/05/05 01:28:52;;;;;;;2.45;1.00;;;5.00;99.90;;;;;;4978966;28;21804;-83
2022/05/05 01:31:19;;;;;;;1.45;0.80;;;5.00;99.90;;;;;;4974703;28;20529;-83
2022/05/05 01:33:47;;;;;;;0.95;0.82;;;5.00;99.90;;;;;;4975294;28;20051;-83
2022/05/05 01:36:14;;;;;;;1.33;1.05;;;5.10;99.90;;;;;;4979426;28;20042;-83
2022/05/05 01:38:44;;;;;;;1.77;0.45;;;5.10;99.90;;;;;;4957110;28;20051;-83
2022/05/05 01:41:13;;;;;;;2.55;0.75;;;5.10;99.90;;;;;;4972026;28;20050;-83
2022/05/05 01:43:43;;;;;;;2.50;0.68;;;5.10;99.90;;;;;;4973970;28;20495;-83
2022/05/05 01:46:10;;;;;;;1.35;1.10;;;5.10;99.90;;;;;;4974346;28;20546;-83
2022/05/05 01:48:38;;;;;;;0.85;0.55;;;5.10;99.90;;;;;;4986320;28;20058;-83
2022/05/05 01:51:05;;;;;;;2.08;0.90;;;5.00;99.90;;;;;;4974455;28;20109;-83
2022/05/05 01:53:36;;;;;;;1.88;0.80;;;5.00;99.90;;;;;;4977191;28;20050;-83
2022/05/05 01:56:12;;;;;;;2.00;1.33;;;5.00;99.90;;;;;;4969777;28;20042;-83
2022/05/05 01:58:44;;;;;;;2.55;0.80;;;5.00;99.90;;;;;;4971800;28;20042;-83
2022/05/05 02:01:12;;;;;;;0.55;0.40;;;4.90;99.90;;;;;;4974377;28;20039;-83
2022/05/05 02:03:40;;;;;;;0.80;0.60;;;4.90;99.90;;;;;;4974799;28;20051;-83
2022/05/05 02:06:08;;;;;;;1.13;0.80;;;4.90;99.90;;;;;;4982686;28;20042;-83
2022/05/05 02:08:36;;;;;;;1.73;1.02;;;4.90;99.90;;;;;;4956366;28;20054;-84
2022/05/05 02:11:03;;;;;;;2.72;0.88;;;4.90;99.90;;;;;;4974885;28;20061;-83
2022/05/05 02:13:30;;;;;;;1.90;0.95;;;4.90;99.90;;;;;;4975375;28;20046;-83
2022/05/05 02:15:58;;;;;;;3.95;1.23;;;4.80;99.90;;;;;;4977868;28;20050;-83
2022/05/05 02:18:26;;;;;;;4.07;1.02;;;4.80;99.90;;;;;;4972902;28;20042;-83
2022/05/05 02:20:53;;;;;;;1.10;0.98;;;4.80;99.90;;;;;;4971823;28;20152;-83
2022/05/05 02:23:20;;;;;;;0.93;0.85;;;4.80;99.90;;;;;;4980291;28;20438;-83
2022/05/05 02:25:47;;;;;;;1.40;0.90;;;4.80;99.90;;;;;;4971637;28;20547;-84
2022/05/05 02:28:14;;;;;;;2.53;0.80;;;4.70;99.90;;;;;;4976194;28;20581;-83
2022/05/05 02:30:41;;;;;;;1.67;1.02;;;4.70;99.90;;;;;;4977558;28;20089;-84
2022/05/05 02:33:08;;;;;;;6.43;1.33;;;4.70;99.90;;;;;;4982943;28;20572;-84
2022/05/05 02:35:35;;;;;;;3.28;1.20;;;4.70;99.90;;;;;;4983408;28;20483;-84
2022/05/05 02:40:47;;;;;;;2.03;1.08;;;4.70;99.90;;;;;;4976823;28;20477;-83
2022/05/05 02:43:14;;;;;;;9.35;1.80;;;4.70;99.90;;;;;;4981420;28;20066;-84
2022/05/05 02:45:41;;;;;;;2.55;1.05;;;4.70;99.90;;;;;;4970975;28;20094;-83
2022/05/05 02:48:08;;;;;;;1.85;0.77;;;4.70;99.90;;;;;;4981032;28;21363;-84
2022/05/05 02:50:36;;;;;;;3.47;2.10;;;4.70;99.90;;;;;;4981754;28;20528;-84
2022/05/05 02:54:47;;;;;;;1.95;1.20;;;4.70;99.90;;;;;;4980394;28;20054;-84
2022/05/05 02:55:54;;;;;;;5.68;1.48;;;4.70;99.90;;;;;;4980045;28;20413;-83
2022/05/05 02:58:21;;;;;;;1.48;1.10;;;4.70;99.90;;;;;;4982552;28;20085;-84
2022/05/05 03:00:49;;;;;;;1.42;0.70;;;4.70;99.90;;;;;;4976753;28;20055;-84
2022/05/05 03:03:16;;;;;;;3.83;1.45;;;4.70;99.90;;;;;;4979450;28;20057;-84
2022/05/05 03:05:43;;;;;;;1.73;0.88;;;4.70;99.90;;;;;;4980840;28;20109;-84
2022/05/05 03:08:10;;;;;;;4.10;1.02;;;4.70;99.90;;;;;;4973114;28;20042;-83
2022/05/05 03:10:37;;;;;;;1.05;0.93;;;4.70;99.90;;;;;;4985678;28;20054;-84
2022/05/05 03:13:04;;;;;;;4.22;1.42;;;4.70;99.90;;;;;;4987300;28;20066;-83
2022/05/05 03:15:32;;;;;;;2.70;1.02;;;4.70;99.90;;;;;;4985547;28;20454;-84
2022/05/05 03:17:59;;;;;;;2.05;0.82;;;4.70;99.90;;;;;;4973764;28;20474;-84
2022/05/05 03:20:26;;;;;;;2.17;1.40;;;4.70;99.90;;;;;;4986478;28;20430;-84
2022/05/05 03:22:53;;;;;;;1.77;0.90;;;4.70;99.90;;;;;;4982300;28;20478;-84
2022/05/05 03:25:20;;;;;;;2.17;1.30;;;4.60;99.90;;;;;;4983050;28;20151;-84
2022/05/05 03:27:47;;;;;;;3.40;0.98;;;4.60;99.90;;;;;;4977420;28;20054;-83
2022/05/05 03:30:14;;;;;;;1.77;1.20;;;4.60;99.90;;;;;;4985800;28;20422;-83
2022/05/05 03:32:41;;;;;;;2.55;1.27;;;4.60;99.90;;;;;;4984497;28;20054;-84
2022/05/05 03:35:08;;;;;;;3.50;1.05;;;4.70;99.90;;;;;;4984149;28;20073;-84
2022/05/05 03:37:35;;;;;;;10.43;2.63;;;4.70;99.90;;;;;;4978687;28;20062;-83
2022/05/05 03:40:03;;;;;;;3.08;1.02;;;4.70;99.90;;;;;;4975460;28;20480;-83
2022/05/05 03:42:30;;;;;;;2.60;1.25;;;4.70;99.90;;;;;;4983439;28;20266;-83
2022/05/05 03:44:57;;;;;;;6.25;1.10;;;4.80;99.90;;;;;;4977308;28;20054;-83
2022/05/05 03:47:24;;;;;;;2.28;1.20;;;4.80;99.90;;;;;;4983321;28;20140;-83
2022/05/05 03:49:51;;;;;;;2.42;1.48;;;4.80;99.90;;;;;;4980359;28;20046;-83
2022/05/05 03:52:18;;;;;;;3.55;1.38;;;4.80;99.90;;;;;;4976567;28;20043;-83
2022/05/05 03:54:45;;;;;;;9.68;2.05;;;4.90;99.90;;;;;;4981414;28;20042;-83
2022/05/05 03:57:12;;;;;;;4.60;1.40;;;4.90;99.90;;;;;;4975461;28;20063;-84
2022/05/05 03:59:39;;;;;;;3.05;1.52;;;4.90;99.90;;;;;;4983708;28;20062;-84
2022/05/05 04:02:06;;;;;;;6.20;1.75;;;4.90;99.90;;;;;;4977488;28;20069;-83
2022/05/05 04:04:33;;;;;;;1.73;1.30;;;5.00;99.90;;;;;;4976078;28;20089;-84
2022/05/05 04:07:00;;;;;;;2.17;1.33;;;5.00;99.90;;;;;;4984738;28;20069;-84
2022/05/05 04:09:26;;;;;;;10.68;1.88;;;5.00;99.90;;;;;;4984819;28;20054;-84
2022/05/05 04:11:53;;;;;;;2.78;1.85;;;5.10;99.90;;;;;;4978388;28;20050;-84
2022/05/05 04:14:21;;;;;;;2.30;1.30;;;5.10;99.90;;;;;;4979548;28;20767;-84
2022/05/05 04:16:48;;;;;;;3.42;1.40;;;5.20;99.90;;;;;;4978706;28;20042;-84
2022/05/05 04:19:15;;;;;;;3.30;1.63;;;5.20;99.90;;;;;;4976868;28;20120;-85
2022/05/05 04:21:42;;;;;;;5.55;1.52;;;5.30;99.90;;;;;;4957610;28;20133;-84
2022/05/05 04:24:09;;;;;;;5.13;1.90;;;5.40;99.90;;;;;;4977240;28;20093;-84
2022/05/05 04:26:36;;;;;;;3.40;2.03;;;5.40;99.90;;;;;;4973631;28;20109;-83
2022/05/05 04:29:03;;;;;;;4.38;1.25;;;5.50;99.90;;;;;;4973795;28;20046;-83
2022/05/05 04:31:31;;;;;;;3.63;1.33;;;5.50;99.90;;;;;;4982636;28;20046;-83
2022/05/05 04:33:59;;;;;;;8.25;2.22;;;5.50;99.90;;;;;;4972319;28;20051;-84
2022/05/05 04:36:26;;;;;;;6.88;1.85;;;5.60;99.90;;;;;;4980094;28;20054;-83
2022/05/05 04:38:53;;;;;;;6.38;1.50;;;5.70;99.90;;;;;;4972128;28;20678;-83
2022/05/05 04:41:21;;;;;;;5.30;1.75;;;5.70;99.90;;;;;;4979899;28;20112;-84
2022/05/05 04:43:48;;;;;;;5.53;2.38;;;5.80;99.90;;;;;;4979992;28;20051;-84
2022/05/05 04:46:15;;;;;;;3.80;1.52;;;5.90;99.90;;;;;;4980731;28;21217;-84
2022/05/05 04:48:42;;;;;;;6.18;3.13;;;6.00;99.90;;;;;;4975093;28;20121;-84
2022/05/05 04:51:09;;;;;;;4.68;1.70;;;6.10;99.90;;;;;;4980392;28;20467;-84
2022/05/05 04:53:36;;;;;;;4.75;2.47;;;6.20;99.90;;;;;;4981883;28;20050;-84
2022/05/05 04:56:03;;;;;;;3.38;1.42;;;6.20;99.90;;;;;;4977435;28;20141;-84
2022/05/05 04:58:34;;;;;;;5.47;1.92;;;6.30;99.90;;;;;;4971819;28;20142;-84
2022/05/05 05:01:02;;;;;;;6.15;2.22;;;6.40;99.90;;;;;;4954328;28;20510;-84
2022/05/05 05:03:32;;;;;;;7.53;1.70;;;6.50;99.90;;;;;;4972678;28;20506;-84
2022/05/05 05:06:01;;;;;;;3.47;1.80;;;6.60;99.90;;;;;;4964502;28;20043;-84
2022/05/05 05:08:29;;;;;;;16.90;2.28;;;6.70;99.90;;;;;;4972562;28;20169;-85
2022/05/05 05:10:56;;;;;;;8.18;2.17;;;6.80;99.90;;;;;;4977376;28;20054;-85
2022/05/05 05:13:23;;;;;;;15.40;2.55;;;6.90;99.90;;;;;;4978166;28;20078;-85
2022/05/05 05:15:50;;;;;;;11.00;2.25;;;6.90;99.90;;;;;;4978738;28;20093;-85
2022/05/05 05:18:17;;;;;;;5.43;2.03;;;7.00;99.90;;;;;;4977924;28;20081;-85
2022/05/05 05:20:45;;;;;;;5.57;2.15;;;7.10;99.90;;;;;;4977986;28;20147;-85
2022/05/05 05:23:11;;;;;;;4.95;2.25;;;7.20;99.90;;;;;;4979839;28;20054;-85
2022/05/05 05:25:38;;;;;;;5.07;2.33;;;7.40;99.90;;;;;;4976838;28;20113;-85
2022/05/05 05:28:06;;;;;;;4.95;2.00;;;7.40;99.90;;;;;;4975977;28;20050;-85
2022/05/05 05:30:40;;;;;;;4.78;2.42;;;7.50;99.90;;;;;;4973129;28;20050;-84
2022/05/05 05:33:08;;;;;;;4.40;2.13;;;7.60;99.90;;;;;;4978260;28;20042;-84
2022/05/05 05:35:35;;;;;;;4.78;2.13;;;7.60;99.90;;;;;;4981233;28;20042;-84
2022/05/05 05:38:02;;;;;;;3.45;2.30;;;7.70;99.90;;;;;;4972553;28;20071;-87
2022/05/05 05:40:29;;;;;;;6.25;2.47;;;7.80;99.90;;;;;;4978999;28;20051;-84
2022/05/05 05:42:56;;;;;;;5.00;2.45;;;7.90;99.90;;;;;;4972874;28;20098;-84
2022/05/05 05:45:23;;;;;;;9.65;2.85;;;8.00;99.90;;;;;;4977412;28;20114;-84
2022/05/05 05:47:51;;;;;;;5.07;2.97;;;8.10;99.90;;;;;;4976790;28;20081;-84
2022/05/05 05:50:18;;;;;;;14.85;5.00;;;8.20;99.90;;;;;;4976130;28;20059;-84
2022/05/05 05:52:45;;;;;;;4.43;2.35;;;8.20;99.90;;;;;;4978189;28;20406;-84
2022/05/05 05:55:12;;;;;;;9.88;3.45;;;8.30;99.90;;;;;;4977145;28;20046;-84
2022/05/05 05:57:39;;;;;;;4.60;1.88;;;8.20;99.90;;;;;;4976849;28;20497;-84
2022/05/05 06:00:07;;;;;;;6.38;2.10;;;8.20;99.90;;;;;;4977046;28;20050;-84
2022/05/05 06:05:23;;;;;;;2.63;1.83;;;8.20;99.90;;;;;;4974310;28;20061;-84
2022/05/05 06:07:50;;;;;;;17.88;2.35;;;8.30;99.90;;;;;;4974019;28;20049;-84
2022/05/05 06:10:18;;;;;;;5.38;2.67;;;8.40;99.90;;;;;;4972107;28;20046;-86
2022/05/05 06:12:46;;;;;;;8.77;2.55;;;8.40;99.90;;;;;;4972172;28;20133;-84
2022/05/05 06:15:13;;;;;;;5.88;3.38;;;8.60;99.90;;;;;;4976745;28;20042;-84
2022/05/05 06:17:40;;;;;;;4.10;1.58;;;8.60;99.90;;;;;;4978986;28;20754;-84
2022/05/05 06:20:08;;;;;;;5.43;1.85;;;8.70;99.90;;;;;;4978990;28;20183;-84
2022/05/05 06:22:35;;;;;;;3.35;1.85;;;8.80;99.90;;;;;;4972879;28;20484;-84
2022/05/05 06:25:02;;;;;;;3.83;2.08;;;8.90;99.90;;;;;;4975955;28;20073;-84
2022/05/05 06:27:29;;;;;;;12.20;2.20;;;9.00;99.90;;;;;;4981372;28;20462;-84
2022/05/05 06:29:56;;;;;;;5.13;2.30;;;9.10;99.90;;;;;;4980067;28;21460;-84
2022/05/05 06:32:23;;;;;;;5.20;2.83;;;9.10;99.90;;;;;;4975281;28;20074;-84
2022/05/05 06:34:50;;;;;;;7.55;2.00;;;9.20;99.90;;;;;;4973819;28;20444;-84
2022/05/05 06:37:17;;;;;;;4.85;2.25;;;9.10;99.90;;;;;;4977958;28;20050;-84
2022/05/05 06:39:44;;;;;;;4.32;2.15;;;9.10;99.90;;;;;;4976175;28;20098;-84
2022/05/05 06:42:11;;;;;;;5.60;3.03;;;9.10;99.90;;;;;;4971829;28;20144;-85
2022/05/05 06:44:38;;;;;;;8.23;2.75;;;9.00;99.90;;;;;;4975084;28;20458;-84
2022/05/05 06:47:05;;;;;;;7.90;3.00;;;8.80;99.90;;;;;;4976788;28;20051;-85
2022/05/05 06:49:32;;;;;;;4.18;2.08;;;8.80;99.90;;;;;;4977787;28;20514;-85
2022/05/05 06:51:59;;;;;;;7.60;3.10;;;8.70;99.90;;;;;;4976608;28;20046;-85
2022/05/05 06:54:32;;;;;;;4.63;2.80;;;8.70;99.90;;;;;;4976614;28;20645;-84
2022/05/05 06:56:59;;;;;;;8.55;2.72;;;8.80;99.90;;;;;;4977005;28;20121;-84
2022/05/05 06:59:26;;;;;;;8.25;2.60;;;8.80;99.90;;;;;;4978867;28;20050;-84
2022/05/05 07:01:53;;;;;;;6.85;3.22;;;8.90;99.90;;;;;;4981699;28;20050;-84
2022/05/05 07:07:14;;;;;;;4.60;2.10;;;9.00;99.90;;;;;;4974816;28;20043;-84
2022/05/05 07:12:29;;;;;;;6.75;2.35;;;8.90;99.90;;;;;;4969484;28;20051;-85
2022/05/05 07:14:56;;;;;;;7.93;1.95;;;8.90;99.90;;;;;;4970987;28;20043;-84
2022/05/05 07:17:24;;;;;;;7.43;2.80;;;8.90;99.90;;;;;;4979729;28;20066;-85
2022/05/05 07:19:52;;;;;;;6.30;3.30;;;8.90;99.90;;;;;;4975536;28;20054;-85
2022/05/05 07:22:19;;;;;;;8.52;2.83;;;8.90;99.90;;;;;;4974749;28;20089;-85
2022/05/05 07:24:47;;;;;;;3.47;2.15;;;8.90;99.90;;;;;;4969771;28;20752;-85
2022/05/05 07:27:14;;;;;;;3.53;2.95;;;8.90;99.90;;;;;;4975055;28;20507;-85
2022/05/05 07:29:41;;;;;;;7.78;2.30;;;8.90;99.90;;;;;;4975484;28;20113;-85
2022/05/05 07:32:09;;;;;;;7.40;3.80;;;8.90;99.90;;;;;;4974457;28;20051;-85
2022/05/05 07:34:38;;;;;;;4.22;2.58;;;8.90;99.90;;;;;;4976340;28;20050;-85
2022/05/05 07:37:06;;;;;;;4.78;2.30;;;9.00;99.90;;;;;;4975173;28;20061;-84
2022/05/05 07:39:33;;;;;;;10.98;3.22;;;8.90;99.90;;;;;;4977760;28;20085;-83
2022/05/05 07:41:59;;;;;;;7.18;2.75;;;8.90;99.90;;;;;;4976119;28;20042;-84
2022/05/05 07:44:26;;;;;;;4.65;2.17;;;8.90;99.90;;;;;;4976517;28;20054;-84
2022/05/05 07:46:54;;;;;;;9.10;3.30;;;8.90;99.90;;;;;;4971772;28;20144;-84
2022/05/05 07:49:22;;;;;;;5.25;2.10;;;9.00;99.90;;;;;;4982489;28;20056;-84
2022/05/05 07:51:52;;;;;;;9.35;2.67;;;9.00;99.90;;;;;;4978625;28;20049;-84
2022/05/05 07:54:35;;;;;;;7.28;2.80;;;9.00;99.90;;;;;;4978586;28;20603;-84
2022/05/05 07:57:03;;;;;;;7.82;2.28;;;9.10;99.90;;;;;;4977711;28;20050;-84
2022/05/05 07:59:30;;;;;;;4.50;2.38;;;9.10;99.90;;;;;;4982283;28;20271;-84
2022/05/05 08:01:58;;;;;;;4.80;2.22;;;9.10;99.90;;;;;;4981557;28;20042;-84
2022/05/05 08:04:25;;;;;;;2.67;1.88;;;9.10;99.90;;;;;;4974347;28;20722;-84
2022/05/05 08:06:52;;;;;;;4.32;2.30;;;9.00;99.90;;;;;;4975131;28;20615;-84
2022/05/05 08:09:19;;;;;;;6.20;2.80;;;9.10;99.90;;;;;;4976296;28;20081;-84
2022/05/05 08:12:00;;;;;;;5.35;1.75;;;9.10;99.90;;;;;;4981350;28;20056;-84
2022/05/05 08:14:28;;;;;;;3.50;1.92;;;9.10;99.90;;;;;;4975658;28;20065;-82
2022/05/05 08:16:55;;;;;;;4.88;2.13;;;9.10;99.90;;;;;;4971334;28;20059;-84
2022/05/05 08:19:23;;;;;;;1.88;1.42;;;9.20;99.90;;;;;;4979984;28;20050;-85
2022/05/05 08:21:50;;;;;;;6.28;1.98;;;9.20;99.90;;;;;;4991888;28;20081;-85
2022/05/05 08:29:50;;;;;;;8.50;2.30;;;9.40;99.90;;;;;;4955017;28;20057;-85
2022/05/05 08:32:17;;;;;;;3.60;1.67;;;9.40;99.90;;;;;;4953790;28;20049;-85
2022/05/05 08:34:44;;;;;;;2.65;1.88;;;9.40;99.90;;;;;;4962740;28;20046;-85
2022/05/05 08:37:11;;;;;;;2.95;2.03;;;9.40;99.90;;;;;;4976105;28;20042;-85
2022/05/05 08:39:38;;;;;;;4.68;2.13;;;9.50;99.90;;;;;;4979679;28;20108;-84
2022/05/05 08:42:06;;;;;;;3.88;1.85;;;9.50;99.90;;;;;;4980214;28;20054;-84
2022/05/05 08:44:32;;;;;;;8.07;2.95;;;9.60;99.90;;;;;;4977616;28;20050;-85
2022/05/05 08:47:01;;;;;;;4.47;1.92;;;9.50;99.90;;;;;;4977485;28;20061;-85
2022/05/05 08:49:31;;;;;;;4.75;2.38;;;9.50;99.90;;;;;;4963508;28;20413;-85
2022/05/05 08:52:02;;;;;;;6.60;2.15;;;9.50;99.90;;;;;;4962088;28;20780;-85
2022/05/05 08:54:32;;;;;;;3.85;1.77;;;9.40;99.90;;;;;;4975482;28;20104;-85
2022/05/05 08:56:59;;;;;;;7.07;3.13;;;9.30;99.90;;;;;;4977023;28;20406;-85
2022/05/05 08:59:26;;;;;;;5.43;1.65;;;9.40;99.90;;;;;;4972365;28;20567;-85
2022/05/05 09:01:53;;;;;;;5.25;2.20;;;9.30;99.90;;;;;;4975990;28;20392;-84
2022/05/05 09:04:24;;;;;;;4.90;2.45;;;9.20;99.90;;;;;;4972297;28;20053;-84
2022/05/05 09:06:52;;;;;;;4.60;2.10;;;9.20;99.90;;;;;;4973533;28;20422;-85
2022/05/05 09:09:26;;;;;;;4.75;2.13;;;9.20;99.90;;;;;;4992450;28;20953;-85
2022/05/05 09:12:12;;;;;;;4.93;2.20;;;9.20;99.90;;;;;;4976643;28;20046;-85
2022/05/05 09:14:50;;;;;;;5.13;1.85;;;9.20;99.90;;;;;;4974820;28;20054;-84
2022/05/05 09:17:51;;;;;;;2.92;1.98;;;9.10;99.90;;;;;;4971241;28;20053;-85
2022/05/05 09:20:35;;;;;;;2.67;1.73;;;9.20;99.90;;;;;;4979461;28;20553;-85
2022/05/05 09:23:02;;;;;;;7.72;2.30;;;9.30;99.90;;;;;;4979665;28;20041;-85
2022/05/05 09:25:46;;;;;;;3.67;1.50;;;9.50;99.90;;;;;;4993134;28;20049;-85
2022/05/05 09:28:20;;;;;;;6.68;2.13;;;9.70;99.90;;;;;;4973662;28;20086;-85
2022/05/05 09:30:49;;;;;;;1.77;1.50;;;9.70;99.90;;;;;;4988658;28;20707;-85
2022/05/05 09:33:35;;;;;;;4.00;1.63;;;9.70;99.90;;;;;;4999154;28;20152;-85
2022/05/05 09:36:04;;;;;;;3.13;1.20;;;9.80;99.90;;;;;;4993571;28;20049;-85
2022/05/05 09:39:00;;;;;;;3.67;1.80;;;9.90;99.90;;;;;;4996015;28;20080;-85
2022/05/05 09:41:42;;;;;;;2.88;1.30;;;10.00;99.90;;;;;;4975351;28;20069;-85
2022/05/05 09:44:14;;;;;;;2.20;0.98;;;10.10;99.90;;;;;;4988759;28;20144;-84
2022/05/05 09:46:43;;;;;;;3.00;1.73;;;10.20;99.90;;;;;;4987331;28;20856;-84
2022/05/05 09:49:17;;;;;;;2.17;1.48;;;10.10;99.90;;;;;;4978550;28;20105;-85
2022/05/05 09:57:42;;;;;;;;;;;9.90;99.90;;;;;;4986232;28;20060;-83
2022/05/05 10:05:45;;;;;;;7.28;2.33;;;9.70;99.90;;;;;;4986816;28;21195;-83
2022/05/05 10:08:23;;;;;;;4.95;1.83;;;9.90;99.90;;;;;;4982728;28;20526;-83
2022/05/05 10:10:52;;;;;;;4.75;1.75;;;10.20;99.90;;;;;;4983396;28;20126;-83
2022/05/05 10:13:20;;;;;;;3.17;1.50;;;10.30;99.90;;;;;;4979961;28;20054;-84
2022/05/05 10:15:50;;;;;;;2.67;1.15;;;10.40;99.90;;;;;;4988559;28;20130;-84
2022/05/05 10:18:27;;;;;;;6.55;2.60;;;10.50;99.90;;;;;;4989392;28;20050;-84
2022/05/05 10:20:58;;;;;;;4.72;1.77;;;10.50;99.90;;;;;;4996149;28;20049;-83
2022/05/05 10:23:50;;;;;;;5.85;1.70;;;10.50;99.90;;;;;;5001843;28;20062;-83
2022/05/05 10:26:23;;;;;;;3.25;1.80;;;10.40;99.90;;;;;;4980878;28;20046;-83
2022/05/05 10:28:51;;;;;;;6.22;2.10;;;10.50;99.90;;;;;;4981561;28;20041;-83
2022/05/05 10:31:31;;;;;;;5.15;2.22;;;10.80;99.90;;;;;;5001979;28;20049;-83
2022/05/05 10:34:00;;;;;;;3.53;1.33;;;10.90;99.90;;;;;;4998952;28;20065;-83
2022/05/05 10:36:28;;;;;;;4.82;1.27;;;10.90;99.90;;;;;;4999262;28;20060;-84
2022/05/05 10:38:56;;;;;;;4.18;1.98;;;11.20;99.90;;;;;;5000078;28;20053;-84
2022/05/05 10:41:38;;;;;;;2.75;1.40;;;11.40;99.90;;;;;;4996466;28;20057;-84
2022/05/05 10:44:23;;;;;;;6.75;1.42;;;11.60;99.90;;;;;;4981304;28;20107;-83
2022/05/05 10:46:50;;;;;;;5.53;1.33;;;11.60;99.90;;;;;;4998197;28;20108;-84
2022/05/05 10:49:38;;;;;;;3.20;0.90;;;11.70;99.90;;;;;;4997200;28;20053;-84
2022/05/05 10:52:29;;;;;;;1.65;0.88;;;11.60;99.90;;;;;;4982464;28;20104;-84
2022/05/05 10:54:56;;;;;;;4.65;2.55;;;11.80;99.90;;;;;;4998719;28;20050;-83
2022/05/05 10:57:25;;;;;;;3.05;1.05;;;12.00;99.90;;;;;;4995083;28;20069;-83
2022/05/05 11:00:13;;;;;;;3.53;1.15;;;12.20;99.90;;;;;;4996109;28;20126;-84
2022/05/05 11:02:56;;;;;;;2.80;1.50;;;12.10;99.90;;;;;;5001873;28;20045;-83
2022/05/05 11:05:27;;;;;;;3.00;1.15;;;12.00;99.90;;;;;;5001650;28;20129;-83
2022/05/05 11:08:09;;;;;;;4.05;1.48;;;12.00;99.90;;;;;;5000794;28;20387;-83
2022/05/05 11:13:44;;;;;;;3.83;1.10;;;11.90;99.90;;;;;;4991597;28;20105;-84
2022/05/05 11:22:12;;;;;;;4.22;2.42;;;12.40;99.90;;;;;;4998914;28;20073;-84
2022/05/05 11:24:45;;;;;;;3.88;2.60;;;12.40;99.90;;;;;;4976710;28;20702;-84
2022/05/05 11:27:14;;;;;;;6.68;2.42;;;12.50;99.90;;;;;;4980056;28;20042;-84
2022/05/05 11:30:02;;;;;;;3.92;2.88;;;12.60;99.90;;;;;;4982553;28;20077;-83
2022/05/05 11:32:32;;;;;;;5.03;2.92;;;12.80;99.90;;;;;;5002150;28;20136;-83
2022/05/05 11:35:00;;;;;;;6.43;2.92;;;12.80;99.90;;;;;;5003242;28;20551;-84
2022/05/05 11:37:28;;;;;;;8.68;2.70;;;12.80;99.90;;;;;;4989735;28;20054;-84
2022/05/05 11:39:59;;;;;;;11.82;3.00;;;12.90;99.90;;;;;;4982730;28;20130;-83
2022/05/05 11:42:27;;;;;;;3.97;3.22;;;12.90;99.90;;;;;;4980603;28;20081;-83
2022/05/05 11:44:54;;;;;;;7.95;3.67;;;13.10;99.90;;;;;;4996014;28;20939;-83
2022/05/05 11:47:23;;;;;;;7.13;3.85;;;13.10;99.90;;;;;;4992330;28;20084;-82
2022/05/05 11:49:52;;;;;;;5.85;3.85;;;13.10;99.90;;;;;;5000081;28;20054;-84
2022/05/05 11:52:21;;;;;;;10.73;3.83;;;13.10;99.90;;;;;;5003158;28;20676;-84
2022/05/05 11:54:51;;;;;;;5.57;3.35;;;13.20;99.90;;;;;;4995671;28;20069;-84
2022/05/05 11:57:31;;;;;;;10.73;4.78;;;13.20;99.90;;;;;;4996438;28;20144;-84
2022/05/05 12:02:44;;;;;;;7.35;4.22;;;13.20;99.90;;;;;;5001869;28;20137;-84
2022/05/05 12:05:14;;;;;;;;;;;13.30;99.90;;;;;;4985519;28;20056;-84
2022/05/05 12:07:46;;;;;;;5.45;3.80;;;13.50;99.90;;;;;;4985272;28;19925;-84
2022/05/05 12:10:14;;;;;;;4.57;2.75;;;13.60;99.90;;;;;;4998890;28;20153;-85
2022/05/05 12:12:46;;;;;;;4.75;2.80;;;13.80;99.90;;;;;;4994199;28;20553;-83
2022/05/05 12:15:16;;;;;;;5.00;3.40;;;14.10;99.90;;;;;;4983989;28;20167;-82
2022/05/05 12:17:48;;;;;;;3.78;3.17;;;14.30;99.90;;;;;;4991549;28;20038;-83
2022/05/05 12:20:19;;;;;;;4.43;3.20;;;14.20;99.90;;;;;;4993489;28;20465;-83
2022/05/05 12:22:56;;;;;;;5.43;3.80;;;14.20;99.90;;;;;;4997101;28;20046;-83
2022/05/05 12:25:24;;;;;;;8.00;3.03;;;14.40;99.90;;;;;;4987417;28;20081;-84
2022/05/05 12:28:00;;;;;;;6.32;3.80;;;14.40;99.90;;;;;;4997376;28;20141;-82
2022/05/05 12:30:42;;;;;;;4.32;3.00;;;14.40;99.90;;;;;;4990271;28;20045;-83
2022/05/05 12:33:11;;;;;;;5.70;3.42;;;14.40;99.90;;;;;;4987880;28;20409;-83
2022/05/05 12:35:41;;;;;;;10.48;3.10;;;14.50;99.90;;;;;;4973748;28;20126;-83
2022/05/05 12:38:11;;;;;;;4.85;3.65;;;14.50;99.90;;;;;;4988407;28;20133;-83
2022/05/05 12:40:40;;;;;;;6.43;3.30;;;14.50;99.50;;;;;;4995027;28;20320;-82
2022/05/05 12:43:20;;;;;;;4.65;3.65;;;14.60;99.90;;;;;;4985549;28;20072;-83
2022/05/05 12:45:48;;;;;;;3.60;2.70;;;14.70;99.70;;;;;;4984235;28;20042;-82
2022/05/05 12:48:15;;;;;;;4.75;3.90;;;14.80;99.40;;;;;;4985081;28;20096;-84
2022/05/05 12:50:52;;;;;;;7.55;3.42;;;14.80;98.30;;;;;;4993527;28;20045;-84
2022/05/05 13:01:52;;;;;;;5.32;3.47;;;15.60;96.90;;;;;;4988910;28;20078;-84
2022/05/05 13:04:20;;;;;;;4.10;2.57;;;15.50;96.90;;;;;;4994282;28;20053;-83
2022/05/05 13:06:49;;;;;;;6.32;3.42;;;15.40;97.30;;;;;;5000060;28;20053;-84
2022/05/05 13:09:16;;;;;;;4.75;2.38;;;15.30;97.00;;;;;;4999100;28;20510;-83
2022/05/05 13:11:46;;;;;;;4.43;2.67;;;15.50;97.40;;;;;;5000605;28;20128;-83
2022/05/05 13:14:14;;;;;;;6.18;2.90;;;15.70;96.30;;;;;;5003677;28;20041;-84
2022/05/05 13:16:42;;;;;;;5.40;3.75;;;15.90;96.10;;;;;;4997228;28;20049;-85
2022/05/05 13:19:09;;;;;;;4.72;2.85;;;15.80;96.00;;;;;;4995291;28;20136;-84
2022/05/05 13:21:38;;;;;;;6.15;3.58;;;15.60;96.60;;;;;;4999744;28;20559;-85
2022/05/05 13:24:07;;;;;;;5.85;2.83;;;15.50;97.20;;;;;;5003269;28;20065;-85
2022/05/05 13:26:37;;;;;;;5.25;3.85;;;15.60;97.60;;;;;;4999300;28;20128;-85
2022/05/05 13:29:04;;;;;;;4.95;2.97;;;15.50;97.30;;;;;;4984811;28;20080;-85
2022/05/05 13:31:31;;;;;;;3.15;2.63;;;15.50;97.80;;;;;;4993741;28;20045;-83
2022/05/05 13:33:58;;;;;;;3.83;3.15;;;15.50;98.20;;;;;;5007084;28;20053;-84
2022/05/05 13:36:26;;;;;;;5.40;3.95;;;15.60;97.90;;;;;;4994049;28;20123;-84
2022/05/05 13:38:54;;;;;;;5.78;3.92;;;15.70;97.70;;;;;;4988877;28;20113;-84
2022/05/05 13:41:34;;;;;;;6.22;3.55;;;15.40;98.30;;;;;;4991310;28;20066;-84
2022/05/05 13:44:03;;;;;;;8.50;3.97;;;15.30;98.60;;;;;;4996075;28;20089;-84
2022/05/05 13:46:31;;;;;;;6.55;3.75;;;15.40;98.50;;;;;;4992633;28;20141;-84
2022/05/05 13:48:58;;;;;;;5.45;3.13;;;15.50;98.40;;;;;;4976669;28;20070;-84
2022/05/05 13:51:25;;;;;;;6.82;3.97;;;15.60;97.80;;;;;;4997778;28;20072;-84
2022/05/05 13:53:52;;;;;;;8.60;4.70;;;15.60;97.80;;;;;;4975896;28;20545;-84
2022/05/05 13:56:19;;;;;;;5.40;4.20;;;15.60;97.50;;;;;;4997729;28;20042;-84
2022/05/05 13:58:46;;;;;;;5.60;3.92;;;15.70;98.10;;;;;;4999354;28;20053;-84
2022/05/05 14:01:13;;;;;;;6.03;2.97;;;15.80;97.60;;;;;;4995494;28;20073;-84